Time;durP1;ratioP1;P1;durP2;ratioP2;P2;SDS_P1;SDS_P2;PMS_P1;PMS_P2;Temp;Humidity;BMP_temperature;BMP_pressure;BME280_temperature;BME280_humidity;BME280_pressure;Samples;Min_cycle;Max_cycle;Signal;HPM_P1;HPM_P2
2024/01/27 00:00:41;;;;;;;5.60;2.30;;;;;;;-128.00;-1.00;-1.00;102816;1257;1004428;-79
2024/01/27 00:03:28;;;;;;;4.10;2.30;;;;;;;-128.00;-1.00;-1.00;102831;1257;1060589;-79
2024/01/27 00:05:54;;;;;;;3.20;1.60;;;;;;;-128.00;-1.00;-1.00;104681;1255;1004801;-79
2024/01/27 00:08:21;;;;;;;3.20;2.00;;;;;;;-128.00;-1.00;-1.00;105467;1256;1004711;-79
2024/01/27 00:10:48;;;;;;;5.80;2.30;;;;;;;-128.00;-1.00;-1.00;104926;1256;1005281;-79
2024/01/27 00:13:14;;;;;;;2.70;1.40;;;;;;;-128.00;-1.00;-1.00;102805;1258;1004710;-79
2024/01/27 00:15:41;;;;;;;5.10;1.90;;;;;;;-128.00;-1.00;-1.00;102877;1256;1004733;-80
2024/01/27 00:18:07;;;;;;;5.80;2.00;;;;;;;-128.00;-1.00;-1.00;102721;1256;1004744;-79
2024/01/27 00:20:34;;;;;;;3.80;2.20;;;;;;;-128.00;-1.00;-1.00;102858;1256;1005299;-79
2024/01/27 00:23:01;;;;;;;4.40;1.80;;;;;;;-128.00;-1.00;-1.00;102829;1256;1004496;-79
2024/01/27 00:25:27;;;;;;;4.50;2.10;;;;;;;-128.00;-1.00;-1.00;102882;1256;1003969;-79
2024/01/27 00:27:54;;;;;;;5.60;1.70;;;;;;;-128.00;-1.00;-1.00;102844;1257;1006158;-79
2024/01/27 00:30:20;;;;;;;6.70;1.90;;;;;;;-128.00;-1.00;-1.00;102855;1255;1005142;-79
2024/01/27 00:32:47;;;;;;;3.10;1.90;;;;;;;-128.00;-1.00;-1.00;102819;1256;1004244;-79
2024/01/27 00:35:16;;;;;;;6.90;2.20;;;;;;;-128.00;-1.00;-1.00;102801;1256;1005434;-79
2024/01/27 00:37:43;;;;;;;7.30;2.80;;;;;;;-128.00;-1.00;-1.00;102833;1257;1057118;-79
2024/01/27 00:40:10;;;;;;;7.50;2.50;;;;;;;-128.00;-1.00;-1.00;102844;1256;1004199;-79
2024/01/27 00:42:37;;;;;;;4.50;1.70;;;;;;;-128.00;-1.00;-1.00;102849;1257;1004980;-79
2024/01/27 00:45:04;;;;;;;3.50;1.40;;;;;;;-128.00;-1.00;-1.00;102848;1256;1003917;-79
2024/01/27 00:47:31;;;;;;;4.70;1.90;;;;;;;-128.00;-1.00;-1.00;102837;1258;1004796;-79
2024/01/27 00:49:58;;;;;;;5.10;1.40;;;;;;;-128.00;-1.00;-1.00;102888;1256;1004678;-79
2024/01/27 00:52:24;;;;;;;3.60;1.80;;;;;;;-128.00;-1.00;-1.00;102776;1260;1004322;-79
2024/01/27 00:54:51;;;;;;;3.90;1.50;;;;;;;-128.00;-1.00;-1.00;102814;1256;1005015;-79
2024/01/27 00:57:18;;;;;;;5.20;1.60;;;;;;;-128.00;-1.00;-1.00;102824;1256;1004223;-79
2024/01/27 00:59:45;;;;;;;6.70;2.00;;;;;;;-128.00;-1.00;-1.00;102838;1255;1005132;-79
2024/01/27 01:02:12;;;;;;;11.70;2.10;;;;;;;-128.00;-1.00;-1.00;102956;1258;1004504;-80
2024/01/27 01:04:38;;;;;;;4.90;1.90;;;;;;;-128.00;-1.00;-1.00;102823;1256;1005335;-81
2024/01/27 01:07:05;;;;;;;5.20;1.40;;;;;;;-128.00;-1.00;-1.00;102809;1257;1004740;-79
2024/01/27 01:09:31;;;;;;;5.10;1.40;;;;;;;-128.00;-1.00;-1.00;102824;1257;1005114;-79
2024/01/27 01:11:58;;;;;;;7.00;2.10;;;;;;;-128.00;-1.00;-1.00;102917;1256;1003599;-79
2024/01/27 01:14:24;;;;;;;8.30;1.80;;;;;;;-128.00;-1.00;-1.00;102915;1257;1003852;-79
2024/01/27 01:16:51;;;;;;;4.60;1.90;;;;;;;-128.00;-1.00;-1.00;102884;1257;1005028;-80
2024/01/27 01:19:18;;;;;;;4.50;2.20;;;;;;;-128.00;-1.00;-1.00;102955;1256;1005072;-80
2024/01/27 01:21:44;;;;;;;10.70;4.70;;;;;;;-128.00;-1.00;-1.00;102992;1256;1004710;-80
2024/01/27 01:24:10;;;;;;;9.30;1.90;;;;;;;-128.00;-1.00;-1.00;102882;1256;1004693;-80
2024/01/27 01:26:37;;;;;;;8.40;2.50;;;;;;;-128.00;-1.00;-1.00;102875;1257;1005509;-79
2024/01/27 01:29:04;;;;;;;7.70;2.10;;;;;;;-128.00;-1.00;-1.00;102804;1257;1003826;-79
2024/01/27 01:31:31;;;;;;;8.10;2.00;;;;;;;-128.00;-1.00;-1.00;105263;1255;1004856;-79
2024/01/27 01:33:58;;;;;;;3.50;1.90;;;;;;;-128.00;-1.00;-1.00;102865;1256;1003706;-79
2024/01/27 01:36:24;;;;;;;6.10;2.60;;;;;;;-128.00;-1.00;-1.00;102809;1256;1004917;-79
2024/01/27 01:38:51;;;;;;;7.70;2.60;;;;;;;-128.00;-1.00;-1.00;102857;1256;1004796;-79
2024/01/27 01:41:18;;;;;;;4.80;2.00;;;;;;;-128.00;-1.00;-1.00;102859;1256;1005523;-79
2024/01/27 01:43:44;;;;;;;9.90;2.50;;;;;;;-128.00;-1.00;-1.00;102848;1255;1005303;-79
2024/01/27 01:46:11;;;;;;;4.20;2.30;;;;;;;-128.00;-1.00;-1.00;102706;1256;1004748;-79
2024/01/27 01:48:37;;;;;;;6.90;2.30;;;;;;;-128.00;-1.00;-1.00;102617;1256;1005462;-78
2024/01/27 01:51:04;;;;;;;7.10;2.00;;;;;;;-128.00;-1.00;-1.00;105017;1256;1004953;-79
2024/01/27 01:53:31;;;;;;;7.60;2.00;;;;;;;-128.00;-1.00;-1.00;105455;1255;1003551;-79
2024/01/27 01:55:58;;;;;;;6.00;1.90;;;;;;;-128.00;-1.00;-1.00;104328;1256;1004811;-79
2024/01/27 01:58:24;;;;;;;11.20;2.70;;;;;;;-128.00;-1.00;-1.00;102546;1256;1003761;-79
2024/01/27 02:00:51;;;;;;;7.00;2.20;;;;;;;-128.00;-1.00;-1.00;102736;1256;1005065;-79
2024/01/27 02:03:17;;;;;;;11.90;4.40;;;;;;;-128.00;-1.00;-1.00;102787;1256;1004542;-79
2024/01/27 02:05:44;;;;;;;7.90;2.00;;;;;;;-128.00;-1.00;-1.00;103199;1255;1004046;-79
2024/01/27 02:08:10;;;;;;;6.30;1.90;;;;;;;-128.00;-1.00;-1.00;103343;1256;1004538;-79
2024/01/27 02:10:37;;;;;;;6.60;2.30;;;;;;;-128.00;-1.00;-1.00;103000;1256;1005160;-79
2024/01/27 02:13:05;;;;;;;4.10;1.70;;;;;;;-128.00;-1.00;-1.00;103011;1257;1004581;-79
2024/01/27 02:15:32;;;;;;;8.50;2.70;;;;;;;-128.00;-1.00;-1.00;105434;1255;1004151;-79
2024/01/27 02:17:58;;;;;;;7.50;1.90;;;;;;;-128.00;-1.00;-1.00;102863;1256;1003521;-79
2024/01/27 02:20:25;;;;;;;19.20;2.00;;;;;;;-128.00;-1.00;-1.00;102855;1255;1004698;-79
2024/01/27 02:22:51;;;;;;;12.40;2.00;;;;;;;-128.00;-1.00;-1.00;102852;1257;1003626;-79
2024/01/27 02:25:18;;;;;;;7.20;1.70;;;;;;;-128.00;-1.00;-1.00;102815;1256;1005385;-79
2024/01/27 02:27:44;;;;;;;8.80;2.40;;;;;;;-128.00;-1.00;-1.00;102846;1256;1005001;-79
2024/01/27 02:30:11;;;;;;;7.90;2.00;;;;;;;-128.00;-1.00;-1.00;102851;1255;1004909;-79
2024/01/27 02:32:38;;;;;;;8.70;1.70;;;;;;;-128.00;-1.00;-1.00;102935;1256;1003659;-79
2024/01/27 02:35:05;;;;;;;13.20;2.50;;;;;;;-128.00;-1.00;-1.00;102834;1256;1004047;-79
2024/01/27 02:37:31;;;;;;;10.70;1.70;;;;;;;-128.00;-1.00;-1.00;102915;1256;1004768;-79
2024/01/27 02:39:58;;;;;;;10.60;1.80;;;;;;;-128.00;-1.00;-1.00;102863;1257;1004689;-79
2024/01/27 02:42:24;;;;;;;10.60;1.90;;;;;;;-128.00;-1.00;-1.00;102842;1256;1005876;-79
2024/01/27 02:44:51;;;;;;;5.20;2.10;;;;;;;-128.00;-1.00;-1.00;102820;1256;1006212;-79
2024/01/27 02:47:17;;;;;;;5.90;2.40;;;;;;;-128.00;-1.00;-1.00;102893;1256;1004646;-79
2024/01/27 02:49:44;;;;;;;5.70;1.60;;;;;;;-128.00;-1.00;-1.00;102798;1256;1005004;-79
2024/01/27 02:52:10;;;;;;;5.40;2.10;;;;;;;-128.00;-1.00;-1.00;102906;1256;1004512;-79
2024/01/27 02:54:37;;;;;;;8.40;2.30;;;;;;;-128.00;-1.00;-1.00;102856;1259;1004164;-78
2024/01/27 02:57:04;;;;;;;5.10;1.50;;;;;;;-128.00;-1.00;-1.00;102873;1256;1004647;-79
2024/01/27 02:59:30;;;;;;;8.20;2.10;;;;;;;-128.00;-1.00;-1.00;102898;1256;1004349;-79
2024/01/27 03:01:57;;;;;;;7.90;2.40;;;;;;;-128.00;-1.00;-1.00;102850;1256;1004835;-79
2024/01/27 03:04:23;;;;;;;8.40;2.20;;;;;;;-128.00;-1.00;-1.00;102851;1255;1003998;-79
2024/01/27 03:06:50;;;;;;;5.20;2.10;;;;;;;-128.00;-1.00;-1.00;102849;1255;1004717;-79
2024/01/27 03:09:16;;;;;;;11.50;3.80;;;;;;;-128.00;-1.00;-1.00;102860;1256;1004894;-79
2024/01/27 03:11:43;;;;;;;5.70;1.50;;;;;;;-128.00;-1.00;-1.00;102926;1255;1004642;-79
2024/01/27 03:14:10;;;;;;;12.60;1.90;;;;;;;-128.00;-1.00;-1.00;102984;1256;1005117;-79
2024/01/27 03:16:37;;;;;;;9.20;3.30;;;;;;;-128.00;-1.00;-1.00;102985;1256;1004522;-79
2024/01/27 03:19:03;;;;;;;2.80;2.00;;;;;;;-128.00;-1.00;-1.00;102954;1256;1004973;-79
2024/01/27 03:21:30;;;;;;;6.50;2.80;;;;;;;-128.00;-1.00;-1.00;102897;1256;1004065;-79
2024/01/27 03:23:56;;;;;;;5.40;2.00;;;;;;;-128.00;-1.00;-1.00;103169;1257;1005037;-79
2024/01/27 03:26:23;;;;;;;5.50;2.00;;;;;;;-128.00;-1.00;-1.00;102890;1255;1005380;-79
2024/01/27 03:28:50;;;;;;;5.90;1.60;;;;;;;-128.00;-1.00;-1.00;102837;1256;1003665;-79
2024/01/27 03:31:16;;;;;;;10.10;2.10;;;;;;;-128.00;-1.00;-1.00;102905;1259;1004252;-80
2024/01/27 03:33:43;;;;;;;5.70;2.40;;;;;;;-128.00;-1.00;-1.00;102925;1256;1003710;-79
2024/01/27 03:36:11;;;;;;;7.20;2.40;;;;;;;-128.00;-1.00;-1.00;102851;1256;1004569;-78
2024/01/27 03:38:39;;;;;;;5.90;1.50;;;;;;;-128.00;-1.00;-1.00;105483;1255;1004634;-79
2024/01/27 03:41:05;;;;;;;12.00;2.10;;;;;;;-128.00;-1.00;-1.00;103002;1256;1003685;-79
2024/01/27 03:43:33;;;;;;;15.70;5.70;;;;;;;-128.00;-1.00;-1.00;102859;1255;1004655;-79
2024/01/27 03:46:00;;;;;;;13.80;3.30;;;;;;;-128.00;-1.00;-1.00;102873;1256;1004479;-79
2024/01/27 03:48:26;;;;;;;12.20;2.40;;;;;;;-128.00;-1.00;-1.00;102820;1256;1004053;-79
2024/01/27 03:50:53;;;;;;;6.20;1.50;;;;;;;-128.00;-1.00;-1.00;102867;1256;1003868;-79
2024/01/27 03:53:19;;;;;;;10.10;2.40;;;;;;;-128.00;-1.00;-1.00;102869;1256;1004393;-79
2024/01/27 03:55:46;;;;;;;3.90;1.70;;;;;;;-128.00;-1.00;-1.00;102847;1259;1005126;-79
2024/01/27 03:58:12;;;;;;;8.60;1.80;;;;;;;-128.00;-1.00;-1.00;102895;1257;1004600;-79
2024/01/27 04:00:39;;;;;;;9.50;2.40;;;;;;;-128.00;-1.00;-1.00;102885;1256;1004329;-79
2024/01/27 04:03:05;;;;;;;10.00;1.90;;;;;;;-128.00;-1.00;-1.00;102875;1256;1004537;-79
2024/01/27 04:05:32;;;;;;;9.80;2.60;;;;;;;-128.00;-1.00;-1.00;104733;1255;1003932;-79
2024/01/27 04:07:58;;;;;;;9.70;2.10;;;;;;;-128.00;-1.00;-1.00;105493;1255;1004464;-79
2024/01/27 04:10:25;;;;;;;7.30;1.70;;;;;;;-128.00;-1.00;-1.00;104228;1255;1004539;-79
2024/01/27 04:12:52;;;;;;;10.80;2.00;;;;;;;-128.00;-1.00;-1.00;102869;1256;1004983;-79
2024/01/27 04:15:18;;;;;;;7.30;1.90;;;;;;;-128.00;-1.00;-1.00;102855;1257;1005072;-79
2024/01/27 04:17:45;;;;;;;13.00;2.70;;;;;;;-128.00;-1.00;-1.00;102841;1259;1003938;-79
2024/01/27 04:20:11;;;;;;;8.50;2.90;;;;;;;-128.00;-1.00;-1.00;102935;1256;1004553;-79
2024/01/27 04:22:39;;;;;;;10.70;2.70;;;;;;;-128.00;-1.00;-1.00;102865;1257;1004189;-79
2024/01/27 04:25:06;;;;;;;8.20;2.60;;;;;;;-128.00;-1.00;-1.00;102849;1256;1005667;-79
2024/01/27 04:27:37;;;;;;;6.10;2.60;;;;;;;-128.00;-1.00;-1.00;102839;1256;1004560;-79
2024/01/27 04:30:05;;;;;;;11.00;2.10;;;;;;;-128.00;-1.00;-1.00;103006;1256;1057496;-79
2024/01/27 04:32:31;;;;;;;9.30;3.20;;;;;;;-128.00;-1.00;-1.00;102866;1255;1005182;-79
2024/01/27 04:34:58;;;;;;;8.10;2.80;;;;;;;-128.00;-1.00;-1.00;102864;1256;1004539;-79
2024/01/27 04:37:25;;;;;;;9.00;2.30;;;;;;;-128.00;-1.00;-1.00;102834;1256;1004168;-79
2024/01/27 04:39:52;;;;;;;13.50;3.20;;;;;;;-128.00;-1.00;-1.00;102835;1256;1005261;-79
2024/01/27 04:42:19;;;;;;;12.30;2.50;;;;;;;-128.00;-1.00;-1.00;102796;1256;1004113;-79
2024/01/27 04:44:46;;;;;;;11.60;3.40;;;;;;;-128.00;-1.00;-1.00;102812;1255;1004790;-78
2024/01/27 04:47:13;;;;;;;6.20;2.90;;;;;;;-128.00;-1.00;-1.00;104017;1255;1004391;-78
2024/01/27 04:49:40;;;;;;;7.60;2.50;;;;;;;-128.00;-1.00;-1.00;104852;1255;1004090;-79
2024/01/27 04:52:06;;;;;;;4.60;2.70;;;;;;;-128.00;-1.00;-1.00;102866;1255;1004671;-79
2024/01/27 04:54:33;;;;;;;9.70;2.70;;;;;;;-128.00;-1.00;-1.00;102859;1255;1004087;-79
2024/01/27 04:56:59;;;;;;;6.20;2.70;;;;;;;-128.00;-1.00;-1.00;102876;1256;1004034;-79
2024/01/27 04:59:26;;;;;;;18.90;3.60;;;;;;;-128.00;-1.00;-1.00;102858;1255;1004820;-79
2024/01/27 05:01:53;;;;;;;8.80;2.70;;;;;;;-128.00;-1.00;-1.00;102888;1255;1004304;-79
2024/01/27 05:04:20;;;;;;;6.50;2.50;;;;;;;-128.00;-1.00;-1.00;104340;1255;1005086;-79
2024/01/27 05:06:46;;;;;;;8.10;2.50;;;;;;;-128.00;-1.00;-1.00;104631;1255;1004191;-79
2024/01/27 05:09:13;;;;;;;5.20;2.70;;;;;;;-128.00;-1.00;-1.00;102835;1256;1003780;-79
2024/01/27 05:11:39;;;;;;;6.40;2.40;;;;;;;-128.00;-1.00;-1.00;102864;1256;1005107;-79
2024/01/27 05:14:06;;;;;;;9.80;2.90;;;;;;;-128.00;-1.00;-1.00;102876;1256;1004170;-79
2024/01/27 05:16:33;;;;;;;17.20;7.20;;;;;;;-128.00;-1.00;-1.00;102842;1255;1004439;-80
2024/01/27 05:19:00;;;;;;;12.10;5.20;;;;;;;-128.00;-1.00;-1.00;102888;1256;1004813;-79
2024/01/27 05:21:26;;;;;;;7.40;3.20;;;;;;;-128.00;-1.00;-1.00;102888;1256;1005172;-79
2024/01/27 05:23:53;;;;;;;8.80;3.00;;;;;;;-128.00;-1.00;-1.00;102852;1257;1004786;-79
2024/01/27 05:26:20;;;;;;;15.20;4.10;;;;;;;-128.00;-1.00;-1.00;102867;1256;1003724;-80
2024/01/27 05:28:47;;;;;;;12.70;3.50;;;;;;;-128.00;-1.00;-1.00;102770;1256;1005490;-79
2024/01/27 05:31:13;;;;;;;14.50;3.20;;;;;;;-128.00;-1.00;-1.00;102837;1256;1005221;-79
2024/01/27 05:33:40;;;;;;;10.90;3.20;;;;;;;-128.00;-1.00;-1.00;102893;1255;1004099;-79
2024/01/27 05:36:07;;;;;;;8.30;3.30;;;;;;;-128.00;-1.00;-1.00;102848;1255;1005221;-79
2024/01/27 05:38:33;;;;;;;12.40;3.40;;;;;;;-128.00;-1.00;-1.00;102819;1256;1004623;-79
2024/01/27 05:41:03;;;;;;;13.20;3.70;;;;;;;-128.00;-1.00;-1.00;102873;1255;1004670;-79
2024/01/27 05:43:30;;;;;;;13.00;3.40;;;;;;;-128.00;-1.00;-1.00;102874;1257;1060523;-79
2024/01/27 05:45:56;;;;;;;14.50;3.80;;;;;;;-128.00;-1.00;-1.00;102764;1256;1003885;-79
2024/01/27 05:48:23;;;;;;;13.20;3.90;;;;;;;-128.00;-1.00;-1.00;102867;1256;1003932;-80
2024/01/27 05:51:00;;;;;;;11.10;3.30;;;;;;;-128.00;-1.00;-1.00;102865;1256;1004617;-79
2024/01/27 05:53:26;;;;;;;6.60;2.60;;;;;;;-128.00;-1.00;-1.00;102855;1255;1060970;-79
2024/01/27 05:56:02;;;;;;;11.10;3.40;;;;;;;-128.00;-1.00;-1.00;102929;1256;1004479;-80
2024/01/27 05:58:28;;;;;;;15.80;8.70;;;;;;;-128.00;-1.00;-1.00;102988;1255;1060553;-81
2024/01/27 06:00:55;;;;;;;10.00;3.50;;;;;;;-128.00;-1.00;-1.00;102844;1259;1004210;-79
2024/01/27 06:03:22;;;;;;;16.00;3.30;;;;;;;-128.00;-1.00;-1.00;103068;1256;1004964;-80
2024/01/27 06:05:49;;;;;;;8.80;3.40;;;;;;;-128.00;-1.00;-1.00;102876;1256;1004700;-79
2024/01/27 06:08:17;;;;;;;15.70;7.00;;;;;;;-128.00;-1.00;-1.00;102913;1257;1005357;-79
2024/01/27 06:10:44;;;;;;;13.30;3.30;;;;;;;-128.00;-1.00;-1.00;102874;1255;1004702;-80
2024/01/27 06:13:10;;;;;;;11.30;3.80;;;;;;;-128.00;-1.00;-1.00;102798;1257;1005439;-79
2024/01/27 06:15:37;;;;;;;10.10;3.90;;;;;;;-128.00;-1.00;-1.00;102907;1257;1005382;-79
2024/01/27 06:18:04;;;;;;;17.70;3.20;;;;;;;-128.00;-1.00;-1.00;103875;1256;1005116;-79
2024/01/27 06:20:30;;;;;;;14.00;4.10;;;;;;;-128.00;-1.00;-1.00;105188;1255;1003984;-79
2024/01/27 06:22:57;;;;;;;13.20;4.10;;;;;;;-128.00;-1.00;-1.00;105349;1255;1005691;-80
2024/01/27 06:25:24;;;;;;;10.70;4.20;;;;;;;-128.00;-1.00;-1.00;103895;1255;1004065;-79
2024/01/27 06:27:51;;;;;;;7.00;3.00;;;;;;;-128.00;-1.00;-1.00;103180;1257;1003805;-80
2024/01/27 06:30:18;;;;;;;16.00;2.90;;;;;;;-128.00;-1.00;-1.00;102811;1256;1004857;-79
2024/01/27 06:32:44;;;;;;;7.70;2.80;;;;;;;-128.00;-1.00;-1.00;102849;1256;1004321;-79
2024/01/27 06:35:11;;;;;;;18.80;7.20;;;;;;;-128.00;-1.00;-1.00;102793;1256;1004184;-79
2024/01/27 06:37:38;;;;;;;11.20;2.40;;;;;;;-128.00;-1.00;-1.00;103393;1256;1004063;-79
2024/01/27 06:40:05;;;;;;;12.20;3.80;;;;;;;-128.00;-1.00;-1.00;105486;1255;1004437;-79
2024/01/27 06:42:31;;;;;;;15.70;3.70;;;;;;;-128.00;-1.00;-1.00;105614;1252;1005172;-79
2024/01/27 06:44:58;;;;;;;16.40;10.30;;;;;;;-128.00;-1.00;-1.00;105664;1253;1004252;-79
2024/01/27 06:47:24;;;;;;;9.00;3.50;;;;;;;-128.00;-1.00;-1.00;105680;1252;1003737;-79
2024/01/27 06:49:51;;;;;;;18.20;5.50;;;;;;;-128.00;-1.00;-1.00;105622;1252;1003756;-79
2024/01/27 06:52:18;;;;;;;12.90;3.90;;;;;;;-128.00;-1.00;-1.00;105712;1252;1003828;-79
2024/01/27 06:54:44;;;;;;;21.30;4.30;;;;;;;-128.00;-1.00;-1.00;105716;1252;1004831;-79
2024/01/27 06:57:20;;;;;;;12.40;4.10;;;;;;;-128.00;-1.00;-1.00;105265;1252;1003349;-79
2024/01/27 06:59:51;;;;;;;10.70;4.00;;;;;;;-128.00;-1.00;-1.00;102915;1253;1059564;-79
2024/01/27 07:02:22;;;;;;;13.80;4.10;;;;;;;-128.00;-1.00;-1.00;102996;1253;1046601;-80
2024/01/27 07:04:49;;;;;;;13.10;3.70;;;;;;;-128.00;-1.00;-1.00;102864;1253;1047039;-79
2024/01/27 07:07:16;;;;;;;12.20;4.00;;;;;;;-128.00;-1.00;-1.00;102985;1257;1005095;-79
2024/01/27 07:09:42;;;;;;;10.60;2.90;;;;;;;-128.00;-1.00;-1.00;102990;1252;1004585;-79
2024/01/27 07:12:09;;;;;;;16.80;3.30;;;;;;;-128.00;-1.00;-1.00;102975;1253;1004826;-79
2024/01/27 07:14:36;;;;;;;16.30;6.20;;;;;;;-128.00;-1.00;-1.00;102985;1253;1005093;-79
2024/01/27 07:17:04;;;;;;;6.60;3.20;;;;;;;-128.00;-1.00;-1.00;102938;1253;1005235;-80
2024/01/27 07:19:31;;;;;;;13.90;5.20;;;;;;;-128.00;-1.00;-1.00;102931;1253;1003929;-80
2024/01/27 07:21:59;;;;;;;15.80;4.60;;;;;;;-128.00;-1.00;-1.00;102884;1253;1004478;-79
2024/01/27 07:24:26;;;;;;;10.50;3.60;;;;;;;-128.00;-1.00;-1.00;105586;1253;1059682;-79
2024/01/27 07:26:53;;;;;;;16.60;3.90;;;;;;;-128.00;-1.00;-1.00;105581;1254;1004199;-79
2024/01/27 07:29:20;;;;;;;16.20;7.40;;;;;;;-128.00;-1.00;-1.00;103958;1254;1004146;-80
2024/01/27 07:31:47;;;;;;;19.00;7.00;;;;;;;-128.00;-1.00;-1.00;102925;1254;1003564;-80
2024/01/27 07:34:14;;;;;;;12.00;4.90;;;;;;;-128.00;-1.00;-1.00;102948;1257;1004532;-79
2024/01/27 07:36:40;;;;;;;21.30;6.60;;;;;;;-128.00;-1.00;-1.00;102927;1256;1004646;-79
2024/01/27 07:39:07;;;;;;;7.40;2.60;;;;;;;-128.00;-1.00;-1.00;102910;1255;1004916;-79
2024/01/27 07:41:35;;;;;;;10.60;3.30;;;;;;;-128.00;-1.00;-1.00;102914;1255;1004908;-80
2024/01/27 07:44:09;;;;;;;12.20;3.90;;;;;;;-128.00;-1.00;-1.00;102959;1254;1004237;-79
2024/01/27 07:46:40;;;;;;;10.80;3.40;;;;;;;-128.00;-1.00;-1.00;105632;1253;1058320;-79
2024/01/27 07:49:06;;;;;;;8.20;3.30;;;;;;;-128.00;-1.00;-1.00;105481;1254;1058719;-79
2024/01/27 07:51:33;;;;;;;9.80;4.00;;;;;;;-128.00;-1.00;-1.00;105584;1253;1004354;-79
2024/01/27 07:54:00;;;;;;;14.00;4.10;;;;;;;-128.00;-1.00;-1.00;105626;1254;1004270;-79
2024/01/27 07:56:27;;;;;;;14.70;3.50;;;;;;;-128.00;-1.00;-1.00;105492;1254;1003977;-79
2024/01/27 07:58:53;;;;;;;15.50;5.40;;;;;;;-128.00;-1.00;-1.00;103163;1253;1003684;-79
2024/01/27 08:01:20;;;;;;;11.20;4.00;;;;;;;-128.00;-1.00;-1.00;105564;1253;1004092;-79
2024/01/27 08:03:46;;;;;;;21.40;9.70;;;;;;;-128.00;-1.00;-1.00;103544;1253;1004222;-80
2024/01/27 08:06:17;;;;;;;20.20;4.40;;;;;;;-128.00;-1.00;-1.00;103244;1253;1003867;-80
2024/01/27 08:08:47;;;;;;;14.30;4.90;;;;;;;-128.00;-1.00;-1.00;103214;1253;1061163;-79
2024/01/27 08:11:14;;;;;;;13.50;3.30;;;;;;;-128.00;-1.00;-1.00;103226;1253;1058539;-80
2024/01/27 08:13:41;;;;;;;13.20;6.30;;;;;;;-128.00;-1.00;-1.00;103197;1253;1004545;-79
2024/01/27 08:16:12;;;;;;;13.70;3.60;;;;;;;-128.00;-1.00;-1.00;104253;1253;1004541;-79
2024/01/27 08:18:40;;;;;;;17.90;3.80;;;;;;;-128.00;-1.00;-1.00;103159;1257;1047395;-80
2024/01/27 08:21:06;;;;;;;14.50;4.10;;;;;;;-128.00;-1.00;-1.00;105604;1253;1004636;-79
2024/01/27 08:23:33;;;;;;;10.90;2.70;;;;;;;-128.00;-1.00;-1.00;105620;1253;1004342;-80
2024/01/27 08:26:00;;;;;;;15.60;3.50;;;;;;;-128.00;-1.00;-1.00;105663;1253;1003985;-79
2024/01/27 08:28:26;;;;;;;8.90;4.00;;;;;;;-128.00;-1.00;-1.00;105646;1253;1003631;-80
2024/01/27 08:30:53;;;;;;;8.60;3.50;;;;;;;-128.00;-1.00;-1.00;103460;1253;1004277;-80
2024/01/27 08:33:19;;;;;;;20.40;5.10;;;;;;;-128.00;-1.00;-1.00;103239;1253;1005248;-79
2024/01/27 08:35:47;;;;;;;15.80;6.30;;;;;;;-128.00;-1.00;-1.00;103147;1253;1006265;-80
2024/01/27 08:38:14;;;;;;;14.00;4.10;;;;;;;-128.00;-1.00;-1.00;103056;1253;1003473;-79
2024/01/27 08:40:41;;;;;;;10.80;4.50;;;;;;;-128.00;-1.00;-1.00;103323;1257;1005504;-80
2024/01/27 08:43:08;;;;;;;25.70;12.20;;;;;;;-128.00;-1.00;-1.00;103150;1253;1004694;-79
2024/01/27 08:45:34;;;;;;;15.70;6.00;;;;;;;-128.00;-1.00;-1.00;103070;1253;1004732;-79
2024/01/27 08:48:01;;;;;;;10.40;4.60;;;;;;;-128.00;-1.00;-1.00;103078;1256;1004278;-79
2024/01/27 08:50:27;;;;;;;10.50;4.70;;;;;;;-128.00;-1.00;-1.00;102998;1253;1004546;-79
2024/01/27 08:52:54;;;;;;;9.90;3.90;;;;;;;-128.00;-1.00;-1.00;103101;1253;1004409;-79
2024/01/27 08:55:23;;;;;;;9.00;3.50;;;;;;;-128.00;-1.00;-1.00;103086;1254;1005530;-79
2024/01/27 08:57:51;;;;;;;10.50;2.70;;;;;;;-128.00;-1.00;-1.00;103044;1253;1061310;-80
2024/01/27 09:00:17;;;;;;;10.50;4.00;;;;;;;-128.00;-1.00;-1.00;103070;1253;1003770;-80
2024/01/27 09:02:44;;;;;;;10.00;3.70;;;;;;;-128.00;-1.00;-1.00;102983;1253;1004184;-79
2024/01/27 09:05:11;;;;;;;14.10;4.70;;;;;;;-128.00;-1.00;-1.00;103205;1253;1004304;-79
2024/01/27 09:07:37;;;;;;;9.70;3.50;;;;;;;-128.00;-1.00;-1.00;102963;1253;1004397;-79
2024/01/27 09:10:05;;;;;;;17.00;7.60;;;;;;;-128.00;-1.00;-1.00;103012;1253;1004852;-79
2024/01/27 09:12:32;;;;;;;19.10;6.20;;;;;;;-128.00;-1.00;-1.00;103203;1253;1004588;-79
2024/01/27 09:14:59;;;;;;;16.90;7.40;;;;;;;-128.00;-1.00;-1.00;103078;1253;1004954;-79
2024/01/27 09:17:26;;;;;;;16.20;5.80;;;;;;;-128.00;-1.00;-1.00;103126;1253;1004412;-79
2024/01/27 09:19:52;;;;;;;10.70;4.10;;;;;;;-128.00;-1.00;-1.00;103017;1253;1004887;-80
2024/01/27 09:22:19;;;;;;;11.10;4.40;;;;;;;-128.00;-1.00;-1.00;103140;1254;1004926;-79
2024/01/27 09:24:45;;;;;;;18.60;7.30;;;;;;;-128.00;-1.00;-1.00;103137;1253;1003755;-80
2024/01/27 09:27:12;;;;;;;22.80;9.50;;;;;;;-128.00;-1.00;-1.00;103093;1253;1005087;-79
2024/01/27 09:29:39;;;;;;;16.90;4.90;;;;;;;-128.00;-1.00;-1.00;103012;1253;1005205;-79
2024/01/27 09:32:05;;;;;;;12.70;5.30;;;;;;;-128.00;-1.00;-1.00;103085;1253;1004521;-79
2024/01/27 09:34:32;;;;;;;8.60;4.40;;;;;;;-128.00;-1.00;-1.00;103097;1253;1004616;-79
2024/01/27 09:36:59;;;;;;;13.50;8.10;;;;;;;-128.00;-1.00;-1.00;102979;1253;1004500;-79
2024/01/27 09:39:25;;;;;;;13.10;5.40;;;;;;;-128.00;-1.00;-1.00;102834;1253;1004927;-79
2024/01/27 09:41:52;;;;;;;33.00;14.10;;;;;;;-128.00;-1.00;-1.00;103040;1253;1003543;-79
2024/01/27 09:44:19;;;;;;;81.60;36.90;;;;;;;-128.00;-1.00;-1.00;102894;1253;1004690;-79
2024/01/27 09:46:47;;;;;;;64.10;25.70;;;;;;;-128.00;-1.00;-1.00;103022;1253;1004788;-79
2024/01/27 09:49:14;;;;;;;39.00;16.90;;;;;;;-128.00;-1.00;-1.00;102877;1253;1003549;-80
2024/01/27 09:51:44;;;;;;;72.50;31.40;;;;;;;-128.00;-1.00;-1.00;103524;1253;1004464;-80
2024/01/27 09:54:10;;;;;;;33.30;15.80;;;;;;;-128.00;-1.00;-1.00;103211;1253;1046124;-80
2024/01/27 09:56:37;;;;;;;53.40;22.70;;;;;;;-128.00;-1.00;-1.00;103254;1253;1004616;-80
2024/01/27 09:59:05;;;;;;;38.70;16.70;;;;;;;-128.00;-1.00;-1.00;103224;1253;1005006;-80
2024/01/27 10:01:31;;;;;;;13.30;6.80;;;;;;;-128.00;-1.00;-1.00;103556;1255;1058349;-80
2024/01/27 10:03:58;;;;;;;53.90;30.80;;;;;;;-128.00;-1.00;-1.00;103292;1256;1003925;-80
2024/01/27 10:06:25;;;;;;;56.00;30.00;;;;;;;-128.00;-1.00;-1.00;103235;1256;1004577;-80
2024/01/27 10:08:54;;;;;;;16.90;8.40;;;;;;;-128.00;-1.00;-1.00;103201;1256;1004920;-79
2024/01/27 10:11:21;;;;;;;24.60;10.20;;;;;;;-128.00;-1.00;-1.00;103076;1253;1006338;-80
2024/01/27 10:13:59;;;;;;;21.20;11.90;;;;;;;-128.00;-1.00;-1.00;102940;1253;1004427;-80
2024/01/27 10:16:27;;;;;;;43.10;23.00;;;;;;;-128.00;-1.00;-1.00;103074;1253;1059919;-80
2024/01/27 10:19:03;;;;;;;58.90;23.40;;;;;;;-128.00;-1.00;-1.00;102913;1253;1004979;-80
2024/01/27 10:21:29;;;;;;;17.50;7.50;;;;;;;-128.00;-1.00;-1.00;103638;1254;1047582;-80
2024/01/27 10:23:56;;;;;;;14.50;5.40;;;;;;;-128.00;-1.00;-1.00;103354;1253;1004692;-80
2024/01/27 10:26:23;;;;;;;24.40;10.00;;;;;;;-128.00;-1.00;-1.00;103380;1253;1004921;-81
2024/01/27 10:28:57;;;;;;;16.80;6.70;;;;;;;-128.00;-1.00;-1.00;103309;1256;1004592;-80
2024/01/27 10:31:31;;;;;;;50.80;23.90;;;;;;;-128.00;-1.00;-1.00;103413;1253;1045276;-81
2024/01/27 10:33:57;;;;;;;20.50;10.80;;;;;;;-128.00;-1.00;-1.00;103317;1253;1048242;-80
2024/01/27 10:36:26;;;;;;;22.80;10.40;;;;;;;-128.00;-1.00;-1.00;103330;1253;1004128;-80
2024/01/27 10:38:52;;;;;;;32.50;18.10;;;;;;;-128.00;-1.00;-1.00;103346;1253;1005103;-80
2024/01/27 10:41:27;;;;;;;15.70;9.50;;;;;;;-128.00;-1.00;-1.00;103451;1253;1004144;-79
2024/01/27 10:43:54;;;;;;;13.90;6.40;;;;;;;-128.00;-1.00;-1.00;103345;1254;1046427;-81
2024/01/27 10:46:22;;;;;;;18.20;8.60;;;;;;;-128.00;-1.00;-1.00;103256;1258;1004340;-80
2024/01/27 10:48:54;;;;;;;29.20;15.50;;;;;;;-128.00;-1.00;-1.00;103292;1253;1004042;-79
2024/01/27 10:51:27;;;;;;;7.10;4.40;;;;;;;-128.00;-1.00;-1.00;103028;1253;1058760;-79
2024/01/27 10:53:53;;;;;;;19.80;9.40;;;;;;;-128.00;-1.00;-1.00;103022;1253;1060726;-79
2024/01/27 10:56:20;;;;;;;21.40;7.90;;;;;;;-128.00;-1.00;-1.00;103370;1254;1004777;-79
2024/01/27 10:58:49;;;;;;;25.50;11.10;;;;;;;-128.00;-1.00;-1.00;103273;1259;1004857;-79
2024/01/27 11:01:16;;;;;;;14.70;7.20;;;;;;;-128.00;-1.00;-1.00;103047;1253;1061674;-78
2024/01/27 11:03:43;;;;;;;11.60;7.20;;;;;;;-128.00;-1.00;-1.00;102834;1254;1004388;-78
2024/01/27 11:06:09;;;;;;;19.80;9.20;;;;;;;-128.00;-1.00;-1.00;102944;1253;1004133;-79
2024/01/27 11:08:37;;;;;;;18.00;7.60;;;;;;;-128.00;-1.00;-1.00;102877;1253;1006244;-79
2024/01/27 11:11:04;;;;;;;15.30;5.40;;;;;;;-128.00;-1.00;-1.00;103056;1253;1003798;-79